createdAt,value
2022-08-30T00:01:07.421Z,9.57
2022-08-30T00:03:19.230Z,10.98
2022-08-30T00:05:24.460Z,8.10
2022-08-30T00:07:30.983Z,7.63
2022-08-30T00:09:36.243Z,7.97
2022-08-30T00:11:40.422Z,5.90
2022-08-30T00:13:45.756Z,7.30
2022-08-30T00:15:50.820Z,7.57
2022-08-30T00:17:55.493Z,5.32
2022-08-30T00:20:00.124Z,9.52
2022-08-30T00:22:08.127Z,7.95
2022-08-30T00:24:13.103Z,7.82
2022-08-30T00:26:19.560Z,7.22
2022-08-30T00:28:24.153Z,8.43
2022-08-30T00:30:28.568Z,9.65
2022-08-30T00:32:33.455Z,8.70
2022-08-30T00:34:39.814Z,7.78
2022-08-30T00:36:46.173Z,7.30
2022-08-30T00:38:52.563Z,6.43
2022-08-30T00:40:57.274Z,7.07
2022-08-30T00:43:04.119Z,6.07
2022-08-30T00:45:31.079Z,8.52
2022-08-30T00:47:35.686Z,5.35
2022-08-30T00:49:41.090Z,5.63
2022-08-30T00:51:47.586Z,5.53
2022-08-30T00:53:56.507Z,5.90
2022-08-30T00:56:01.135Z,7.43
2022-08-30T00:58:08.642Z,6.43
2022-08-30T01:00:15.248Z,5.72
2022-08-30T01:02:20.370Z,6.32
2022-08-30T01:04:27.865Z,9.50
2022-08-30T01:06:35.199Z,5.88
2022-08-30T01:08:40.215Z,9.18
2022-08-30T01:10:47.099Z,5.68
2022-08-30T01:12:53.513Z,6.22
2022-08-30T01:14:58.763Z,5.15
2022-08-30T01:17:03.057Z,5.75
2022-08-30T01:19:29.143Z,6.20
2022-08-30T01:21:43.993Z,6.95
2022-08-30T01:23:51.746Z,5.57
2022-08-30T01:25:58.952Z,4.80
2022-08-30T01:28:09.375Z,4.97
2022-08-30T01:30:14.343Z,4.97
2022-08-30T01:32:21.281Z,5.95
2022-08-30T01:34:26.668Z,4.40
2022-08-30T01:36:31.558Z,6.70
2022-08-30T01:38:48.875Z,6.32
2022-08-30T01:40:58.011Z,9.85
2022-08-30T01:43:06.362Z,7.53
2022-08-30T01:45:12.975Z,8.25
2022-08-30T01:47:19.503Z,6.20
2022-08-30T01:49:27.537Z,7.93
2022-08-30T01:51:32.544Z,8.77
2022-08-30T01:53:37.172Z,7.63
2022-08-30T01:55:43.978Z,7.63
2022-08-30T01:57:50.996Z,8.93
2022-08-30T01:59:55.321Z,7.00
2022-08-30T02:01:59.863Z,9.50
2022-08-30T02:04:04.724Z,7.38
2022-08-30T02:06:13.830Z,6.15
2022-08-30T02:08:18.637Z,7.25
2022-08-30T02:10:25.752Z,7.10
2022-08-30T02:12:31.394Z,7.93
2022-08-30T02:14:39.272Z,7.50
2022-08-30T02:16:43.843Z,6.47
2022-08-30T02:18:48.281Z,7.07
2022-08-30T02:20:52.725Z,6.35
2022-08-30T02:23:01.419Z,7.15
2022-08-30T02:25:11.258Z,6.47
2022-08-30T02:27:27.235Z,7.47
2022-08-30T02:29:33.540Z,4.55
2022-08-30T02:31:38.165Z,6.25
2022-08-30T02:33:44.673Z,7.10
2022-08-30T02:35:53.032Z,5.90
2022-08-30T02:37:57.605Z,6.88
2022-08-30T02:40:04.189Z,6.03
2022-08-30T02:42:09.337Z,9.13
2022-08-30T02:44:16.014Z,17.83
2022-08-30T02:46:22.285Z,14.23
2022-08-30T02:48:28.681Z,7.03
2022-08-30T02:50:33.605Z,8.73
2022-08-30T02:52:39.170Z,6.20
2022-08-30T02:54:44.447Z,5.38
2022-08-30T02:56:50.508Z,4.63
2022-08-30T02:58:54.804Z,5.50
2022-08-30T03:00:59.207Z,4.35
2022-08-30T03:03:05.295Z,5.63
2022-08-30T03:05:13.285Z,5.57
2022-08-30T03:07:19.827Z,5.93
2022-08-30T03:09:24.116Z,4.28
2022-08-30T03:11:28.676Z,5.57
2022-08-30T03:13:33.110Z,6.40
2022-08-30T03:15:42.092Z,4.25
2022-08-30T03:17:49.484Z,4.38
2022-08-30T03:19:55.843Z,5.90
2022-08-30T03:22:00.180Z,5.10
2022-08-30T03:24:08.346Z,4.18
2022-08-30T03:26:16.788Z,4.28
2022-08-30T03:28:21.506Z,4.10
2022-08-30T03:30:28.549Z,7.25
2022-08-30T03:32:35.222Z,7.28
2022-08-30T03:34:42.434Z,4.20
2022-08-30T03:36:49.561Z,6.13
2022-08-30T03:38:53.908Z,6.57
2022-08-30T03:40:58.598Z,5.18
2022-08-30T03:43:05.913Z,6.82
2022-08-30T03:45:10.466Z,4.35
2022-08-30T03:47:14.819Z,7.55
2022-08-30T03:49:22.310Z,4.82
2022-08-30T03:51:28.710Z,7.20
2022-08-30T03:53:33.875Z,4.15
2022-08-30T03:55:40.207Z,4.32
2022-08-30T03:57:44.832Z,5.50
2022-08-30T03:59:49.396Z,4.35
2022-08-30T04:01:56.496Z,5.55
2022-08-30T04:04:02.809Z,6.57
2022-08-30T04:06:09.303Z,6.93
2022-08-30T04:08:17.351Z,4.50
2022-08-30T04:10:24.128Z,6.18
2022-08-30T04:12:28.928Z,8.02
2022-08-30T04:14:36.097Z,4.47
2022-08-30T04:16:42.507Z,4.03
2022-08-30T04:18:47.601Z,3.72
2022-08-30T04:20:55.765Z,3.65
2022-08-30T04:23:03.578Z,4.35
2022-08-30T04:25:08.619Z,3.42
2022-08-30T04:27:26.139Z,4.35
2022-08-30T04:29:33.627Z,3.15
2022-08-30T04:31:38.637Z,4.93
2022-08-30T04:33:45.276Z,2.78
2022-08-30T04:35:51.969Z,4.80
2022-08-30T04:37:58.937Z,4.00
2022-08-30T04:40:05.826Z,3.90
2022-08-30T04:42:13.191Z,2.92
2022-08-30T04:44:19.520Z,3.10
2022-08-30T04:46:28.178Z,3.55
2022-08-30T04:48:35.503Z,3.85
2022-08-30T04:50:39.981Z,4.90
2022-08-30T04:52:49.431Z,3.83
2022-08-30T04:54:58.272Z,4.35
2022-08-30T04:57:04.962Z,5.60
2022-08-30T04:59:12.401Z,7.68
2022-08-30T05:01:23.889Z,3.85
2022-08-30T05:03:29.668Z,6.63
2022-08-30T05:05:46.092Z,4.68
2022-08-30T05:07:52.621Z,3.80
2022-08-30T05:09:57.637Z,3.90
2022-08-30T05:12:04.324Z,5.00
2022-08-30T05:14:11.965Z,3.05
2022-08-30T05:16:18.901Z,3.78
2022-08-30T05:18:25.648Z,3.25
2022-08-30T05:20:36.616Z,6.00
2022-08-30T05:22:42.528Z,13.25
2022-08-30T05:24:47.140Z,8.15
2022-08-30T05:26:53.886Z,5.68
2022-08-30T05:28:58.835Z,6.43
2022-08-30T05:31:05.434Z,5.65
2022-08-30T05:33:18.356Z,5.38
2022-08-30T05:35:25.731Z,6.50
2022-08-30T05:37:33.261Z,7.00
2022-08-30T05:39:50.969Z,5.20
2022-08-30T05:41:58.662Z,5.13
2022-08-30T05:44:06.413Z,4.80
2022-08-30T05:46:14.762Z,7.30
2022-08-30T05:48:19.587Z,4.68
2022-08-30T05:50:27.025Z,3.78
2022-08-30T05:52:36.307Z,3.70
2022-08-30T05:54:43.919Z,4.22
2022-08-30T05:56:50.971Z,3.83
2022-08-30T05:58:56.242Z,4.35
2022-08-30T06:01:00.654Z,5.93
2022-08-30T06:03:07.405Z,4.93
2022-08-30T06:05:14.165Z,3.53
2022-08-30T06:07:21.171Z,3.42
2022-08-30T06:09:29.605Z,4.53
2022-08-30T06:11:36.250Z,2.67
2022-08-30T06:13:41.001Z,4.70
2022-08-30T06:15:48.426Z,3.85
2022-08-30T06:17:52.962Z,3.78
2022-08-30T06:19:57.503Z,5.07
2022-08-30T06:22:04.155Z,4.50
2022-08-30T06:24:10.986Z,4.85
2022-08-30T06:26:15.513Z,6.93
2022-08-30T06:28:22.051Z,3.80
2022-08-30T06:30:28.377Z,3.85
2022-08-30T06:32:40.530Z,4.63
2022-08-30T06:34:52.122Z,5.65
2022-08-30T06:36:58.716Z,4.55
2022-08-30T06:39:03.336Z,5.95
2022-08-30T06:41:13.952Z,3.67
2022-08-30T06:43:18.712Z,4.28
2022-08-30T06:45:23.077Z,6.32
2022-08-30T06:47:30.003Z,3.83
2022-08-30T06:49:36.441Z,6.38
2022-08-30T06:51:42.105Z,5.30
2022-08-30T06:53:52.087Z,6.57
2022-08-30T06:56:01.895Z,7.28
2022-08-30T06:58:06.358Z,8.75
2022-08-30T07:00:12.109Z,4.72
2022-08-30T07:02:16.666Z,5.75
2022-08-30T07:04:21.034Z,4.43
2022-08-30T07:06:28.230Z,5.13
2022-08-30T07:08:33.072Z,6.93
2022-08-30T07:10:41.791Z,10.93
2022-08-30T07:12:50.523Z,7.18
2022-08-30T07:14:54.923Z,5.93
2022-08-30T07:16:59.394Z,8.52
2022-08-30T07:19:08.240Z,10.63
2022-08-30T07:21:29.769Z,6.18
2022-08-30T07:23:34.113Z,8.00
2022-08-30T07:25:42.775Z,6.90
2022-08-30T07:27:49.054Z,3.90
2022-08-30T07:29:53.465Z,9.73
2022-08-30T07:32:00.091Z,4.78
2022-08-30T07:34:07.106Z,9.18
2022-08-30T07:36:11.641Z,8.05
2022-08-30T07:38:16.498Z,6.05
2022-08-30T07:40:23.199Z,5.65
2022-08-30T07:42:27.532Z,8.45
2022-08-30T07:44:35.416Z,5.63
2022-08-30T07:46:40.098Z,7.60
2022-08-30T07:48:45.175Z,6.28
2022-08-30T07:50:52.558Z,9.55
2022-08-30T07:53:01.542Z,4.63
2022-08-30T07:55:06.677Z,4.72
2022-08-30T07:57:13.526Z,4.25
2022-08-30T07:59:23.504Z,4.97
2022-08-30T08:01:28.165Z,4.85
2022-08-30T08:03:33.883Z,4.55
2022-08-30T08:05:43.052Z,6.35
2022-08-30T08:07:47.507Z,6.22
2022-08-30T08:09:54.476Z,6.75
2022-08-30T08:12:01.427Z,8.40
2022-08-30T08:14:06.386Z,3.95
2022-08-30T08:16:13.106Z,3.60
2022-08-30T08:18:21.963Z,3.58
2022-08-30T08:20:27.543Z,5.38
2022-08-30T08:22:36.852Z,4.60
2022-08-30T08:24:46.095Z,3.78
2022-08-30T08:26:50.566Z,3.75
2022-08-30T08:28:57.337Z,5.80
2022-08-30T08:31:03.796Z,6.68
2022-08-30T08:33:08.903Z,4.20
2022-08-30T08:35:15.578Z,11.82
2022-08-30T08:37:22.796Z,8.45
2022-08-30T08:39:32.288Z,4.97
2022-08-30T08:42:00.303Z,4.20
2022-08-30T08:44:20.363Z,4.60
2022-08-30T08:46:48.575Z,6.15
2022-08-30T08:49:00.289Z,5.00
2022-08-30T08:51:22.826Z,5.35
2022-08-30T08:53:46.666Z,4.82
2022-08-30T08:55:54.317Z,6.95
2022-08-30T08:58:00.550Z,5.85
2022-08-30T09:00:08.592Z,6.53
2022-08-30T09:02:41.891Z,7.35
2022-08-30T09:04:48.471Z,2.75
2022-08-30T09:07:05.062Z,2.60
2022-08-30T09:09:11.738Z,4.82
2022-08-30T09:11:26.080Z,3.90
2022-08-30T09:13:30.778Z,5.82
2022-08-30T09:15:36.098Z,5.70
2022-08-30T09:18:18.998Z,4.72
2022-08-30T09:20:31.186Z,4.68
2022-08-30T09:22:46.694Z,8.45
2022-08-30T09:25:01.143Z,5.22
2022-08-30T09:27:29.050Z,3.90
2022-08-30T09:29:35.678Z,5.53
2022-08-30T09:32:22.478Z,4.55
2022-08-30T09:34:21.582Z,7.95
2022-08-30T09:36:34.678Z,6.70
2022-08-30T09:38:41.119Z,5.85
2022-08-30T09:40:49.007Z,6.55
2022-08-30T09:43:07.694Z,4.18
2022-08-30T09:45:21.526Z,5.07
2022-08-30T09:49:44.586Z,2.97
2022-08-30T09:51:57.239Z,3.05
2022-08-30T09:54:23.364Z,6.32
2022-08-30T09:56:54.146Z,6.88
2022-08-30T09:59:11.020Z,3.33
2022-08-30T10:01:37.368Z,3.47
2022-08-30T10:04:12.509Z,4.25
2022-08-30T10:06:35.039Z,4.95
2022-08-30T10:09:11.511Z,7.47
2022-08-30T10:11:40.737Z,6.15
2022-08-30T10:14:11.813Z,6.63
2022-08-30T10:16:50.584Z,10.43
2022-08-30T10:19:34.075Z,6.90
2022-08-30T10:21:50.752Z,8.30
2022-08-30T10:24:02.411Z,8.73
2022-08-30T10:26:30.493Z,10.38
2022-08-30T10:28:50.333Z,9.40
2022-08-30T10:31:08.719Z,6.80
2022-08-30T10:33:40.289Z,5.50
2022-08-30T10:35:50.744Z,6.85
2022-08-30T10:38:21.174Z,5.85
2022-08-30T10:40:45.869Z,4.53
2022-08-30T10:42:50.642Z,10.20
2022-08-30T10:45:01.438Z,40.42
2022-08-30T10:47:40.424Z,46.10
2022-08-30T10:49:47.997Z,19.95
2022-08-30T10:52:26.250Z,12.00
2022-08-30T10:54:45.448Z,7.38
2022-08-30T10:56:52.537Z,9.68
2022-08-30T10:59:02.368Z,10.80
2022-08-30T11:01:18.125Z,11.90
2022-08-30T11:03:48.637Z,12.38
2022-08-30T11:06:19.979Z,9.65
2022-08-30T11:08:41.185Z,7.70
2022-08-30T11:11:04.384Z,7.13
2022-08-30T11:15:27.440Z,11.95
2022-08-30T11:17:38.246Z,8.27
2022-08-30T11:19:46.670Z,12.32
2022-08-30T11:21:56.286Z,9.82
2022-08-30T11:24:13.045Z,9.00
2022-08-30T11:26:41.521Z,10.63
2022-08-30T11:29:05.685Z,12.52
2022-08-30T11:31:11.964Z,14.35
2022-08-30T11:33:30.960Z,14.75
2022-08-30T11:35:48.360Z,16.13
2022-08-30T11:37:53.316Z,14.23
2022-08-30T11:40:03.958Z,11.50
2022-08-30T11:42:30.341Z,15.43
2022-08-30T11:44:34.831Z,13.38
2022-08-30T11:46:41.204Z,14.80
2022-08-30T11:48:54.351Z,14.50
2022-08-30T11:51:15.521Z,15.05
2022-08-30T11:53:42.056Z,16.35
2022-08-30T11:55:59.607Z,12.25
2022-08-30T11:58:35.928Z,9.52
2022-08-30T12:00:45.678Z,11.82
2022-08-30T12:05:04.846Z,13.40
2022-08-30T12:07:11.268Z,17.88
2022-08-30T12:09:47.788Z,10.82
2022-08-30T12:12:11.489Z,11.25
2022-08-30T12:14:43.772Z,9.27
2022-08-30T12:17:01.929Z,12.60
2022-08-30T12:19:17.700Z,13.77
2022-08-30T12:21:44.938Z,11.68
2022-08-30T12:24:22.908Z,9.95
2022-08-30T12:26:33.629Z,10.93
2022-08-30T12:28:38.460Z,9.45
2022-08-30T12:30:48.922Z,10.65
2022-08-30T12:32:55.238Z,12.63
2022-08-30T12:35:03.289Z,13.82
2022-08-30T12:37:12.367Z,12.82
2022-08-30T12:39:43.985Z,12.05
2022-08-30T12:41:48.504Z,8.02
2022-08-30T12:43:55.639Z,7.30
2022-08-30T12:46:01.718Z,11.68
2022-08-30T12:48:14.588Z,11.30
2022-08-30T12:50:25.909Z,12.02
2022-08-30T12:52:44.105Z,10.07
2022-08-30T12:54:49.846Z,9.27
2022-08-30T12:57:25.583Z,8.63
2022-08-30T12:59:55.501Z,10.38
2022-08-30T13:03:21.890Z,11.35
2022-08-30T13:04:42.980Z,10.38
2022-08-30T13:07:01.281Z,10.82
2022-08-30T13:09:08.876Z,9.45
2022-08-30T13:11:29.534Z,13.88
2022-08-30T13:13:54.853Z,9.93
2022-08-30T13:16:14.135Z,11.43
2022-08-30T13:18:33.933Z,9.70
2022-08-30T13:20:38.607Z,10.75
2022-08-30T13:22:58.964Z,14.65
2022-08-30T13:25:03.825Z,10.38
2022-08-30T13:27:10.717Z,14.10
2022-08-30T13:29:20.560Z,9.65
2022-08-30T13:31:27.218Z,16.77
2022-08-30T13:33:32.499Z,19.02
2022-08-30T13:35:45.614Z,27.40
2022-08-30T13:37:51.679Z,22.30
2022-08-30T13:39:57.674Z,24.00
2022-08-30T13:44:33.504Z,24.02
2022-08-30T13:46:40.097Z,24.35
2022-08-30T13:48:49.343Z,23.35
2022-08-30T13:50:58.056Z,23.63
2022-08-30T13:53:02.557Z,22.15
2022-08-30T13:55:13.521Z,19.67
2022-08-30T13:57:53.541Z,18.92
2022-08-30T13:59:42.721Z,17.67
2022-08-30T14:02:14.153Z,19.40
2022-08-30T14:04:21.590Z,19.13
2022-08-30T14:06:33.744Z,20.10
2022-08-30T14:08:48.577Z,17.90
2022-08-30T14:10:53.734Z,16.15
2022-08-30T14:13:07.886Z,18.40
2022-08-30T14:15:20.037Z,17.20
2022-08-30T14:17:30.585Z,21.40
2022-08-30T14:19:35.269Z,15.85
2022-08-30T14:21:43.683Z,19.10
2022-08-30T14:23:55.266Z,18.50
2022-08-30T14:26:01.236Z,17.63
2022-08-30T14:28:08.027Z,17.88
2022-08-30T14:30:16.730Z,14.38
2022-08-30T14:32:24.025Z,17.27
2022-08-30T14:34:30.383Z,15.40
2022-08-30T14:36:37.704Z,22.67
2022-08-30T14:38:44.649Z,17.13
2022-08-30T14:40:53.554Z,18.23
2022-08-30T14:42:58.157Z,17.52
2022-08-30T14:45:02.944Z,18.45
2022-08-30T14:47:10.698Z,15.90
2022-08-30T14:49:15.535Z,16.13
2022-08-30T14:51:22.911Z,15.60
2022-08-30T14:53:31.316Z,16.83
2022-08-30T14:55:38.452Z,17.90
2022-08-30T14:57:42.767Z,17.55
2022-08-30T14:59:49.125Z,19.25
2022-08-30T15:01:53.870Z,16.55
2022-08-30T15:03:58.746Z,15.15
2022-08-30T15:06:05.429Z,15.43
2022-08-30T15:08:09.913Z,14.32
2022-08-30T15:10:15.849Z,19.05
2022-08-30T15:12:22.354Z,13.55
2022-08-30T15:14:26.784Z,15.45
2022-08-30T15:16:35.883Z,15.48
2022-08-30T15:18:44.337Z,18.77
2022-08-30T15:20:49.420Z,15.80
2022-08-30T15:22:53.685Z,21.50
2022-08-30T15:25:04.731Z,18.98
2022-08-30T15:27:29.857Z,18.38
2022-08-30T15:29:35.002Z,18.73
2022-08-30T15:31:46.668Z,19.45
2022-08-30T15:33:54.372Z,20.17
2022-08-30T15:36:05.885Z,17.58
2022-08-30T15:38:13.545Z,19.38
2022-08-30T15:40:18.042Z,16.08
2022-08-30T15:42:23.484Z,18.05
2022-08-30T15:44:34.599Z,21.50
2022-08-30T15:46:41.005Z,19.27
2022-08-30T15:48:46.620Z,20.13
2022-08-30T15:50:58.586Z,16.33
2022-08-30T15:53:03.723Z,16.90
2022-08-30T15:55:08.972Z,17.90
2022-08-30T15:57:20.097Z,16.65
2022-08-30T15:59:24.824Z,19.35
2022-08-30T16:01:30.691Z,18.25
2022-08-30T16:03:38.066Z,16.95
2022-08-30T16:05:42.821Z,18.52
2022-08-30T16:07:47.798Z,19.13
2022-08-30T16:09:57.341Z,13.45
2022-08-30T16:12:04.647Z,19.25
2022-08-30T16:14:09.514Z,20.23
2022-08-30T16:16:19.977Z,17.02
2022-08-30T16:18:25.097Z,16.85
2022-08-30T16:20:30.532Z,19.58
2022-08-30T16:22:37.913Z,20.13
2022-08-30T16:24:46.748Z,20.02
2022-08-30T16:26:51.183Z,22.30
2022-08-30T16:28:58.926Z,20.27
2022-08-30T16:31:04.454Z,18.23
2022-08-30T16:33:09.812Z,18.45
2022-08-30T16:35:18.526Z,20.73
2022-08-30T16:37:23.382Z,16.42
2022-08-30T16:39:27.724Z,23.00
2022-08-30T16:41:36.435Z,18.50
2022-08-30T16:43:41.100Z,18.80
2022-08-30T16:45:45.797Z,16.52
2022-08-30T16:47:50.007Z,18.02
2022-08-30T16:49:56.637Z,19.13
2022-08-30T16:52:01.029Z,18.95
2022-08-30T16:54:10.293Z,18.00
2022-08-30T16:56:17.901Z,18.13
2022-08-30T16:58:22.757Z,18.67
2022-08-30T17:00:33.799Z,21.40
2022-08-30T17:02:38.236Z,18.02
2022-08-30T17:04:43.650Z,17.73
2022-08-30T17:06:52.664Z,15.57
2022-08-30T17:08:57.388Z,20.83
2022-08-30T17:11:01.993Z,17.92
2022-08-30T17:13:11.403Z,17.05
2022-08-30T17:15:16.333Z,25.13
2022-08-30T17:17:22.199Z,18.27
2022-08-30T17:19:28.684Z,17.15
2022-08-30T17:21:33.495Z,16.52
2022-08-30T17:23:37.740Z,18.63
2022-08-30T17:25:46.861Z,22.65
2022-08-30T17:27:51.206Z,19.63
2022-08-30T17:29:55.506Z,21.60
2022-08-30T17:32:02.012Z,19.50
2022-08-30T17:34:07.034Z,17.75
2022-08-30T17:36:11.666Z,19.10
2022-08-30T17:38:20.539Z,16.90
2022-08-30T17:40:24.852Z,15.48
2022-08-30T17:42:29.982Z,19.75
2022-08-30T17:44:42.048Z,17.52
2022-08-30T17:46:47.081Z,16.45
2022-08-30T17:48:57.557Z,16.48
2022-08-30T17:51:05.085Z,16.27
2022-08-30T17:53:09.541Z,16.90
2022-08-30T17:55:14.915Z,14.02
2022-08-30T17:57:23.641Z,16.52
2022-08-30T17:59:31.506Z,15.85
2022-08-30T18:01:37.026Z,14.30
2022-08-30T18:03:46.648Z,13.40
2022-08-30T18:05:51.911Z,14.40
2022-08-30T18:07:57.213Z,15.40
2022-08-30T18:10:05.976Z,16.13
2022-08-30T18:12:12.732Z,14.70
2022-08-30T18:14:18.702Z,16.02
2022-08-30T18:16:27.631Z,15.10
2022-08-30T18:18:32.624Z,13.93
2022-08-30T18:20:37.196Z,14.98
2022-08-30T18:22:44.930Z,15.52
2022-08-30T18:24:49.733Z,11.73
2022-08-30T18:26:55.810Z,11.23
2022-08-30T18:29:04.671Z,13.05
2022-08-30T18:31:09.644Z,14.68
2022-08-30T18:33:14.456Z,14.85
2022-08-30T18:35:23.859Z,12.48
2022-08-30T18:37:28.689Z,12.57
2022-08-30T18:39:34.628Z,13.65
2022-08-30T18:41:44.456Z,13.50
2022-08-30T18:43:54.964Z,13.27
2022-08-30T18:46:11.766Z,14.07
2022-08-30T18:48:20.230Z,12.35
2022-08-30T18:50:25.129Z,18.58
2022-08-30T18:52:31.493Z,14.13
2022-08-30T18:54:42.386Z,12.35
2022-08-30T18:56:47.175Z,11.65
2022-08-30T18:58:51.694Z,13.68
2022-08-30T19:00:58.060Z,14.07
2022-08-30T19:03:02.685Z,15.63
2022-08-30T19:05:07.696Z,14.95
2022-08-30T19:07:17.149Z,12.40
2022-08-30T19:09:22.925Z,13.38
2022-08-30T19:11:27.281Z,14.35
2022-08-30T19:13:36.117Z,12.40
2022-08-30T19:15:40.404Z,15.02
2022-08-30T19:17:45.518Z,12.32
2022-08-30T19:19:52.544Z,11.80
2022-08-30T19:21:56.947Z,11.48
2022-08-30T19:24:01.297Z,10.43
2022-08-30T19:26:10.906Z,10.57
2022-08-30T19:28:15.424Z,13.38
2022-08-30T19:30:29.980Z,11.27
2022-08-30T19:32:38.754Z,13.20
2022-08-30T19:34:45.285Z,14.80
2022-08-30T19:36:49.659Z,10.38
2022-08-30T19:38:56.116Z,13.35
2022-08-30T19:41:01.151Z,11.23
2022-08-30T19:43:07.842Z,12.35
2022-08-30T19:45:16.626Z,11.15
2022-08-30T19:47:21.425Z,9.63
2022-08-30T19:49:25.669Z,8.73
2022-08-30T19:51:35.162Z,12.18
2022-08-30T19:53:39.961Z,13.02
2022-08-30T19:55:44.514Z,10.73
2022-08-30T19:57:51.945Z,9.27
2022-08-30T19:59:58.874Z,11.05
2022-08-30T20:02:03.345Z,11.60
2022-08-30T20:04:08.296Z,12.23
2022-08-30T20:06:13.936Z,11.13
2022-08-30T20:08:18.436Z,15.60
2022-08-30T20:10:27.022Z,20.38
2022-08-30T20:12:33.193Z,14.15
2022-08-30T20:14:38.698Z,12.02
2022-08-30T20:16:46.152Z,13.13
2022-08-30T20:18:50.792Z,9.75
2022-08-30T20:20:56.219Z,10.55
2022-08-30T20:23:03.943Z,10.02
2022-08-30T20:25:10.929Z,14.07
2022-08-30T20:27:22.168Z,15.52
2022-08-30T20:29:41.239Z,14.63
2022-08-30T20:31:46.575Z,13.32
2022-08-30T20:33:51.228Z,15.05
2022-08-30T20:36:03.178Z,11.90
2022-08-30T20:38:07.948Z,12.75
2022-08-30T20:40:15.946Z,10.32
2022-08-30T20:42:25.909Z,11.45
2022-08-30T20:44:31.037Z,10.15
2022-08-30T20:46:55.440Z,12.88
2022-08-30T20:49:12.127Z,10.02
2022-08-30T20:51:25.763Z,11.23
2022-08-30T20:53:38.067Z,11.15
2022-08-30T20:55:46.656Z,11.18
2022-08-30T20:57:59.973Z,13.20
2022-08-30T21:00:06.795Z,12.20
2022-08-30T21:02:16.660Z,10.23
2022-08-30T21:04:24.350Z,10.15
2022-08-30T21:06:38.369Z,10.25
2022-08-30T21:08:49.210Z,8.38
2022-08-30T21:10:56.882Z,12.15
2022-08-30T21:13:02.258Z,14.00
2022-08-30T21:15:34.019Z,13.00
2022-08-30T21:17:40.132Z,13.70
2022-08-30T21:19:47.351Z,12.98
2022-08-30T21:21:56.272Z,13.43
2022-08-30T21:24:04.165Z,12.98
2022-08-30T21:26:09.025Z,11.23
2022-08-30T21:28:17.959Z,14.48
2022-08-30T21:30:22.515Z,8.65
2022-08-30T21:32:27.156Z,12.65
2022-08-30T21:34:53.198Z,12.90
2022-08-30T21:37:00.754Z,9.98
2022-08-30T21:39:07.137Z,11.98
2022-08-30T21:41:14.054Z,9.13
2022-08-30T21:43:18.425Z,12.57
2022-08-30T21:45:23.096Z,11.57
2022-08-30T21:47:30.449Z,10.80
2022-08-30T21:49:34.974Z,11.07
2022-08-30T21:51:43.110Z,13.63
2022-08-30T21:53:49.960Z,10.35
2022-08-30T21:55:54.556Z,12.25
2022-08-30T21:57:59.983Z,14.13
2022-08-30T22:00:09.193Z,25.00
2022-08-30T22:02:14.339Z,44.92
2022-08-30T22:04:20.931Z,41.53
2022-08-30T22:06:32.545Z,39.45
2022-08-30T22:08:37.040Z,57.28
2022-08-30T22:10:41.838Z,50.03
2022-08-30T22:12:48.455Z,44.53
2022-08-30T22:14:54.956Z,48.65
2022-08-30T22:16:59.515Z,56.08
2022-08-30T22:19:04.808Z,49.00
2022-08-30T22:21:13.726Z,42.97
2022-08-30T22:23:19.083Z,42.35
2022-08-30T22:25:26.217Z,38.35
2022-08-30T22:27:33.140Z,41.08
2022-08-30T22:29:37.722Z,35.28
2022-08-30T22:31:44.592Z,30.02
2022-08-30T22:33:51.234Z,27.55
2022-08-30T22:35:56.092Z,19.75
2022-08-30T22:38:02.690Z,19.70
2022-08-30T22:40:09.953Z,21.58
2022-08-30T22:42:14.594Z,18.50
2022-08-30T22:44:19.278Z,19.10
2022-08-30T22:46:33.539Z,16.52
2022-08-30T22:48:40.987Z,15.57
2022-08-30T22:50:45.386Z,15.32
2022-08-30T22:52:51.609Z,16.50
2022-08-30T22:54:55.961Z,19.75
2022-08-30T22:57:00.453Z,16.33
2022-08-30T22:59:07.691Z,13.65
2022-08-30T23:01:21.719Z,16.67
2022-08-30T23:03:28.255Z,19.30
2022-08-30T23:05:34.537Z,18.25
2022-08-30T23:07:38.907Z,22.92
2022-08-30T23:09:46.100Z,23.17
2022-08-30T23:11:50.737Z,33.58
2022-08-30T23:13:55.150Z,35.22
2022-08-30T23:16:01.656Z,32.53
2022-08-30T23:18:07.937Z,31.48
2022-08-30T23:20:12.688Z,25.77
2022-08-30T23:22:22.669Z,27.00
2022-08-30T23:24:41.232Z,23.98
2022-08-30T23:27:03.271Z,19.17
2022-08-30T23:29:22.484Z,24.77
2022-08-30T23:31:41.467Z,24.70
2022-08-30T23:33:58.086Z,17.45
2022-08-30T23:36:26.162Z,14.35
2022-08-30T23:38:44.837Z,18.23
2022-08-30T23:41:01.768Z,17.80
2022-08-30T23:43:20.661Z,16.10
2022-08-30T23:45:40.185Z,16.00
2022-08-30T23:47:56.884Z,14.55
2022-08-30T23:50:13.832Z,17.02
2022-08-30T23:52:32.368Z,14.10
2022-08-30T23:54:49.546Z,13.05
2022-08-30T23:57:08.275Z,17.52
2022-08-30T23:59:25.132Z,15.82
